首页
METAR-TAF:

METAR-TAF

机场 :

Thomson-McDuffie County Airport

Thomson, 喬治亞, 美国

纬度: 33-31-46N, 经度: 082-30-59W, 海拔: 152米

当前天气观测

该预报发布于13分钟前的19:55 UTC
风速7节,风向南转南东
温度 28°C
湿度 66%
气压 1021 hPa
能見度: 16.1公里
散云层高于3400英尺
散云层高于4300英尺
阴天层高于5000英尺

METAR: KHQU 241955Z AUTO 15007KT 10SM SCT034 SCT043 OVC050 28/21 A3015 RMK AO2 T02810210

时间: 16:08 (20:08 UTC)


TAF: 丢失

超过4000个机场的气象观测和天气预报(METAR&TAF报告)。

可查询的气象台以黄色和红色小点在地图上表示。

将鼠标移到小点上方,可查看气象台名称。

然后点击查看天气观测和预报。

如需切换地图:点击带黑十字的绿色按钮放大地图;点击带横线的绿色按钮缩小地图;或者点击绿色箭头查看邻近地区的地图。


METAR-TAF: